Time;durP1;ratioP1;P1;durP2;ratioP2;P2;SDS_P1;SDS_P2;PMS_P1;PMS_P2;Temp;Humidity;BMP_temperature;BMP_pressure;BME280_temperature;BME280_humidity;BME280_pressure;Samples;Min_cycle;Max_cycle;Signal;HPM_P1;HPM_P2
2021/10/23 00:01:02;;;;;;;4.50;3.70;;;11.00;99.90;;;;;;4921904;29;20490;-85
2021/10/23 00:03:35;;;;;;;6.30;3.80;;;11.00;99.90;;;;;;4911407;29;21031;-85
2021/10/23 00:06:04;;;;;;;8.53;4.17;;;11.00;99.90;;;;;;4924522;29;21102;-84
2021/10/23 00:08:55;;;;;;;;;;;;;;;;;;;;;
2021/10/23 00:11:40;;;;;;;7.53;3.47;;;10.90;99.90;;;;;;4926310;29;20460;-83
2021/10/23 00:14:20;;;;;;;6.63;3.90;;;10.90;99.90;;;;;;4920868;29;20565;-85
2021/10/23 00:17:04;;;;;;;7.60;4.13;;;10.90;99.90;;;;;;4928865;29;20442;-87
2021/10/23 00:19:52;;;;;;;8.43;4.20;;;10.90;99.90;;;;;;4908785;29;20721;-85
2021/10/23 00:22:19;;;;;;;10.30;4.07;;;10.90;99.90;;;;;;4920781;29;20546;-85
2021/10/23 00:25:04;;;;;;;5.80;3.23;;;10.90;99.90;;;;;;4975558;28;20475;-83
2021/10/23 00:27:34;;;;;;;5.83;3.47;;;10.90;99.90;;;;;;4981233;28;20491;-84
2021/10/23 00:30:00;;;;;;;5.77;3.57;;;10.90;99.90;;;;;;4981511;28;20575;-87
2021/10/23 00:32:29;;;;;;;6.57;3.60;;;10.90;99.90;;;;;;4986707;28;20455;-86
2021/10/23 00:35:06;;;;;;;4.93;3.57;;;10.80;99.90;;;;;;4981871;28;20479;-89
2021/10/23 00:38:30;;;;;;;6.67;4.30;;;10.90;99.90;;;;;;4983297;28;20467;-86
2021/10/23 00:40:59;;;;;;;7.70;4.30;;;10.90;99.90;;;;;;4980236;28;20451;-84
2021/10/23 00:43:30;;;;;;;6.73;4.30;;;10.90;99.90;;;;;;4996761;28;20463;-85
2021/10/23 00:46:05;;;;;;;6.50;5.00;;;10.90;99.90;;;;;;4981971;28;20479;-86
2021/10/23 00:48:34;;;;;;;7.97;4.37;;;10.90;99.90;;;;;;4983995;28;21073;-86
2021/10/23 00:51:27;;;;;;;7.30;4.00;;;10.90;99.90;;;;;;4982185;28;20455;-87
2021/10/23 00:53:57;;;;;;;8.70;4.17;;;10.90;99.90;;;;;;4983061;28;20476;-86
2021/10/23 00:56:27;;;;;;;6.40;4.13;;;10.80;99.90;;;;;;4980850;28;20826;-86
2021/10/23 00:58:59;;;;;;;7.37;4.73;;;10.90;99.90;;;;;;4990447;28;20484;-88
2021/10/23 01:01:49;;;;;;;7.13;4.67;;;10.90;99.90;;;;;;4984315;28;20519;-87
2021/10/23 01:08:31;;;;;;;8.67;5.93;;;10.80;99.90;;;;;;4945822;28;20437;-85
2021/10/23 01:14:55;;;;;;;7.30;5.87;;;10.80;99.90;;;;;;4966206;23;20533;-87
2021/10/23 01:17:23;;;;;;;7.53;6.27;;;10.80;99.90;;;;;;4977681;28;20455;-86
2021/10/23 01:19:52;;;;;;;9.80;5.97;;;10.80;99.90;;;;;;4979040;28;20573;-85
2021/10/23 01:22:28;;;;;;;7.90;5.50;;;10.80;99.90;;;;;;4962471;28;20473;-85
2021/10/23 01:24:56;;;;;;;9.90;5.40;;;10.80;99.90;;;;;;4965715;28;20468;-85
2021/10/23 01:27:24;;;;;;;7.63;5.50;;;10.80;99.90;;;;;;4965402;28;20464;-88
2021/10/23 01:29:51;;;;;;;6.30;5.70;;;10.80;99.90;;;;;;4966514;28;22190;-85
2021/10/23 01:32:41;;;;;;;8.27;5.70;;;10.90;99.90;;;;;;4975207;28;20450;-91
2021/10/23 01:35:28;;;;;;;10.30;6.00;;;10.80;99.90;;;;;;4982967;28;20582;-89
2021/10/23 01:37:56;;;;;;;9.27;6.40;;;10.90;99.90;;;;;;4982086;28;20468;-88
2021/10/23 01:40:32;;;;;;;8.70;6.03;;;10.90;99.90;;;;;;4980125;28;20490;-89
2021/10/23 01:43:02;;;;;;;9.47;6.97;;;10.90;99.90;;;;;;4975170;28;20478;-87
2021/10/23 01:45:30;;;;;;;10.63;7.10;;;10.90;99.90;;;;;;4960740;28;20563;-89
2021/10/23 01:47:58;;;;;;;7.10;6.07;;;10.90;99.90;;;;;;4961278;28;20473;-87
2021/10/23 01:51:46;;;;;;;;;;;;;;;;;;;;;
2021/10/23 01:55:15;;;;;;;6.30;5.70;;;10.90;99.90;;;;;;4969374;28;20507;-88
2021/10/23 01:57:44;;;;;;;8.47;6.23;;;10.90;99.90;;;;;;4968569;28;20484;-85
2021/10/23 02:00:14;;;;;;;7.70;6.07;;;10.90;99.90;;;;;;4983637;28;21024;-85
2021/10/23 02:02:50;;;;;;;7.77;5.47;;;10.90;99.90;;;;;;4971510;28;20490;-89
2021/10/23 02:05:17;;;;;;;7.83;6.57;;;10.90;99.90;;;;;;4975451;28;20490;-86
2021/10/23 02:07:44;;;;;;;8.23;6.03;;;10.90;99.90;;;;;;4964233;28;20468;-87
2021/10/23 02:10:10;;;;;;;9.93;7.13;;;10.90;99.90;;;;;;4978115;28;20463;-90
2021/10/23 02:13:34;;;;;;;10.90;7.37;;;10.90;99.90;;;;;;4981800;28;20452;-85
2021/10/23 02:16:16;;;;;;;10.77;6.30;;;10.90;99.90;;;;;;5176979;23;20525;-86
2021/10/23 02:18:43;;;;;;;9.27;7.10;;;10.90;99.90;;;;;;4986588;28;20540;-86
2021/10/23 02:21:29;;;;;;;10.33;7.00;;;10.90;99.90;;;;;;4986505;28;20524;-88
2021/10/23 02:24:10;;;;;;;12.70;7.63;;;11.10;99.90;;;;;;4980472;28;20524;-85
2021/10/23 02:26:37;;;;;;;8.17;7.37;;;11.40;99.90;;;;;;4967563;28;20459;-84
2021/10/23 02:29:46;;;;;;;10.67;8.07;;;11.40;99.90;;;;;;4969875;28;20457;-87
2021/10/23 02:32:14;;;;;;;10.77;7.70;;;11.10;99.90;;;;;;4969345;28;20474;-85
2021/10/23 02:38:02;;;;;;;9.50;7.73;;;10.90;99.90;;;;;;4966159;28;20513;-86
2021/10/23 02:40:31;;;;;;;7.70;6.93;;;10.80;99.90;;;;;;4967064;28;20551;-87
2021/10/23 02:43:01;;;;;;;9.47;7.80;;;10.80;99.90;;;;;;4967295;28;20658;-85
2021/10/23 02:45:28;;;;;;;14.80;7.77;;;10.80;99.90;;;;;;4969013;28;20736;-86
2021/10/23 02:47:56;;;;;;;10.20;8.70;;;10.80;99.90;;;;;;4964596;28;20461;-85
2021/10/23 02:50:23;;;;;;;11.47;8.57;;;10.70;99.90;;;;;;4967354;28;20489;-87
2021/10/23 02:52:50;;;;;;;16.67;9.90;;;10.70;99.90;;;;;;4966489;28;20466;-85
2021/10/23 02:55:20;;;;;;;10.30;8.07;;;10.70;99.90;;;;;;4972658;28;20608;-87
2021/10/23 02:57:48;;;;;;;15.27;9.53;;;10.60;99.90;;;;;;4966447;28;20457;-87
2021/10/23 03:00:18;;;;;;;9.60;8.63;;;10.70;99.90;;;;;;4965592;28;20491;-86
2021/10/23 03:02:49;;;;;;;13.70;9.00;;;10.60;99.90;;;;;;4963366;28;20478;-87
2021/10/23 03:05:19;;;;;;;15.20;9.20;;;10.60;99.90;;;;;;4962779;28;20486;-86
2021/10/23 03:07:46;;;;;;;13.37;9.33;;;10.60;99.90;;;;;;4965317;28;20524;-86
2021/10/23 03:10:14;;;;;;;13.63;10.53;;;10.60;99.90;;;;;;4963610;28;20459;-86
2021/10/23 03:12:45;;;;;;;16.20;10.10;;;10.50;99.90;;;;;;4947111;28;20479;-86
2021/10/23 03:15:15;;;;;;;10.90;9.73;;;10.50;99.90;;;;;;5006299;23;21082;-88
2021/10/23 03:17:43;;;;;;;15.90;10.13;;;10.50;99.90;;;;;;4988452;28;20459;-86
2021/10/23 03:20:11;;;;;;;13.70;11.00;;;10.50;99.90;;;;;;4971779;28;20498;-85
2021/10/23 03:22:40;;;;;;;13.40;12.00;;;10.50;99.90;;;;;;4984911;28;20455;-85
2021/10/23 03:25:13;;;;;;;12.67;10.37;;;10.50;99.90;;;;;;4974138;28;20828;-85
2021/10/23 03:27:41;;;;;;;16.63;12.30;;;10.50;99.90;;;;;;4964029;28;20931;-85
2021/10/23 03:30:09;;;;;;;14.27;11.80;;;10.50;99.90;;;;;;4966529;28;20463;-88
2021/10/23 03:32:36;;;;;;;14.97;11.40;;;10.60;99.90;;;;;;4620935;28;9999640;-86
2021/10/23 03:35:05;;;;;;;16.03;12.10;;;10.60;99.90;;;;;;4957941;28;20312;-87
2021/10/23 03:37:45;;;;;;;15.00;11.43;;;10.60;99.90;;;;;;4965726;28;20483;-86
2021/10/23 03:40:55;;;;;;;12.37;11.00;;;10.60;99.90;;;;;;4960033;28;20484;-86
2021/10/23 03:43:24;;;;;;;17.23;11.57;;;10.70;99.90;;;;;;4963065;28;20460;-85
2021/10/23 03:46:34;;;;;;;14.70;11.80;;;10.60;99.90;;;;;;4958847;28;21014;-87
2021/10/23 03:52:56;;;;;;;15.07;12.00;;;10.70;99.90;;;;;;4962077;28;20492;-87
2021/10/23 03:55:56;;;;;;;14.60;10.97;;;10.80;99.90;;;;;;4948614;28;20488;-86
2021/10/23 03:58:40;;;;;;;14.13;11.77;;;10.80;99.90;;;;;;4948593;28;20491;-86
2021/10/23 04:01:15;;;;;;;13.80;11.37;;;10.70;99.90;;;;;;4964588;28;21999;-86
2021/10/23 04:07:53;;;;;;;12.40;10.97;;;10.80;99.90;;;;;;4892341;29;20432;-86
2021/10/23 04:10:41;;;;;;;15.27;12.60;;;10.90;99.90;;;;;;4905710;29;20448;-91
2021/10/23 04:13:22;;;;;;;16.23;11.83;;;10.90;99.90;;;;;;4888416;29;20459;-89
2021/10/23 04:16:32;;;;;;;13.70;12.17;;;10.90;99.90;;;;;;4904641;29;20483;-85
2021/10/23 04:19:06;;;;;;;14.87;12.00;;;10.90;99.90;;;;;;4894901;29;20530;-83
2021/10/23 04:21:57;;;;;;;13.07;11.67;;;10.80;99.90;;;;;;4905920;29;20476;-84
2021/10/23 04:27:22;;;;;;;13.00;11.43;;;10.80;99.90;;;;;;4982372;28;20846;-87
2021/10/23 04:33:44;;;;;;;15.73;12.77;;;11.40;99.90;;;;;;4976847;28;21028;-86
2021/10/23 04:36:18;;;;;;;15.40;13.47;;;11.60;99.90;;;;;;5049516;23;20507;-85
2021/10/23 04:38:45;;;;;;;15.63;13.93;;;11.50;99.90;;;;;;4985248;28;20451;-85
2021/10/23 04:41:15;;;;;;;16.03;12.30;;;11.30;99.90;;;;;;4989273;28;20455;-85
2021/10/23 04:43:43;;;;;;;12.73;11.43;;;11.10;99.90;;;;;;4987555;28;20487;-84
2021/10/23 04:46:11;;;;;;;14.03;12.37;;;11.00;99.90;;;;;;5040679;23;20691;-85
2021/10/23 04:48:39;;;;;;;17.03;13.17;;;10.90;99.90;;;;;;4994429;28;20945;-85
2021/10/23 04:54:56;;;;;;;19.57;14.67;;;10.80;99.90;;;;;;4989097;28;20498;-83
2021/10/23 04:57:59;;;;;;;17.13;11.03;;;10.80;99.90;;;;;;4989029;28;20451;-84
2021/10/23 05:00:56;;;;;;;13.50;11.50;;;10.80;99.90;;;;;;4987841;28;20491;-85
2021/10/23 05:04:09;;;;;;;18.70;13.40;;;10.80;99.90;;;;;;4983748;28;20466;-85
2021/10/23 05:06:52;;;;;;;14.93;12.27;;;10.80;99.90;;;;;;4999647;28;20490;-87
2021/10/23 05:09:38;;;;;;;15.20;13.07;;;10.80;99.90;;;;;;4989379;28;20458;-85
2021/10/23 05:12:37;;;;;;;16.17;13.17;;;10.80;99.90;;;;;;4938540;28;20461;-84
2021/10/23 05:15:04;;;;;;;17.27;12.50;;;10.70;99.90;;;;;;4937921;29;20537;-86
2021/10/23 05:17:31;;;;;;;15.83;12.73;;;10.70;99.90;;;;;;4956471;28;20462;-86
2021/10/23 05:19:58;;;;;;;17.23;13.07;;;10.70;99.90;;;;;;4986583;28;20576;-85
2021/10/23 05:23:03;;;;;;;18.63;14.00;;;10.70;99.90;;;;;;4985743;28;20483;-84
2021/10/23 05:25:39;;;;;;;16.23;13.00;;;10.70;99.90;;;;;;5012833;28;20536;-88
2021/10/23 05:28:47;;;;;;;17.13;13.47;;;10.70;99.90;;;;;;5013656;28;20470;-86
2021/10/23 05:31:30;;;;;;;15.93;12.20;;;10.70;99.90;;;;;;5009145;28;20452;-88
2021/10/23 05:33:57;;;;;;;16.80;12.77;;;10.70;99.90;;;;;;5002275;28;20453;-86
2021/10/23 05:36:27;;;;;;;18.40;13.20;;;10.60;99.90;;;;;;4996196;28;20540;-88
2021/10/23 05:39:05;;;;;;;;;;;;;;;;;;;;;
2021/10/23 05:41:50;;;;;;;15.70;12.33;;;10.60;99.90;;;;;;4993439;28;20831;-87
2021/10/23 05:44:18;;;;;;;15.47;11.90;;;10.60;99.90;;;;;;4999577;28;20517;-86
2021/10/23 05:47:20;;;;;;;15.07;12.40;;;10.50;99.90;;;;;;4993417;28;20448;-88
2021/10/23 05:50:02;;;;;;;17.87;13.57;;;10.50;99.90;;;;;;4929454;29;20436;-87
2021/10/23 05:52:36;;;;;;;16.43;13.03;;;10.50;99.90;;;;;;4932811;28;20461;-86
2021/10/23 05:55:03;;;;;;;20.20;14.10;;;10.50;99.90;;;;;;4947878;29;20472;-87
2021/10/23 05:57:54;;;;;;;18.77;12.53;;;10.50;99.90;;;;;;4940611;29;20480;-87
2021/10/23 06:03:54;;;;;;;16.30;14.07;;;10.50;99.90;;;;;;4944740;28;20437;-88
2021/10/23 06:06:21;;;;;;;13.87;11.57;;;10.50;99.90;;;;;;4944814;28;20449;-85
2021/10/23 06:08:47;;;;;;;19.57;12.27;;;10.50;99.90;;;;;;4945539;29;20465;-87
2021/10/23 06:15:10;;;;;;;17.10;11.27;;;10.50;99.90;;;;;;4941457;29;20817;-86
2021/10/23 06:18:28;;;;;;;15.00;11.83;;;10.50;99.90;;;;;;4886381;29;21652;-86
2021/10/23 06:21:06;;;;;;;14.30;11.90;;;10.50;99.90;;;;;;4886641;29;20601;-85
2021/10/23 06:23:32;;;;;;;13.50;10.40;;;10.50;99.90;;;;;;4940942;28;20556;-86
2021/10/23 06:26:00;;;;;;;13.20;11.10;;;10.50;99.90;;;;;;4924340;29;20485;-85
2021/10/23 06:28:27;;;;;;;15.00;11.90;;;10.60;99.90;;;;;;4985595;28;21240;-87
2021/10/23 06:30:55;;;;;;;20.07;11.27;;;10.60;99.90;;;;;;4984306;28;20528;-85
2021/10/23 06:33:22;;;;;;;16.23;11.20;;;10.60;99.90;;;;;;4984443;28;20468;-87
2021/10/23 06:35:51;;;;;;;13.93;11.20;;;10.70;99.90;;;;;;4986460;28;20490;-87
2021/10/23 06:38:20;;;;;;;16.70;11.30;;;10.70;99.90;;;;;;4983886;28;20570;-88
2021/10/23 06:40:48;;;;;;;14.00;10.53;;;10.80;99.90;;;;;;4985171;28;20594;-86
2021/10/23 06:43:16;;;;;;;17.73;11.70;;;10.80;99.90;;;;;;4984477;28;20463;-86
2021/10/23 06:46:05;;;;;;;15.47;11.03;;;10.80;99.90;;;;;;4948598;28;22701;-86
2021/10/23 06:48:47;;;;;;;14.93;10.63;;;10.90;99.90;;;;;;4984223;28;20676;-87
2021/10/23 06:51:53;;;;;;;13.70;10.90;;;11.00;99.90;;;;;;4983719;28;20823;-85
2021/10/23 06:55:16;;;;;;;12.53;9.40;;;11.00;99.90;;;;;;4946253;28;20484;-85
2021/10/23 07:04:00;;;;;;;11.10;9.60;;;11.00;99.90;;;;;;5017784;23;20521;-86
2021/10/23 07:10:57;;;;;;;13.50;11.40;;;11.40;99.90;;;;;;4839847;29;20456;-87
2021/10/23 07:14:14;;;;;;;;;;;;;;;;;;;;;
2021/10/23 07:38:18;;;;;;;14.20;9.53;;;11.60;99.90;;;;;;4972170;28;20471;-84
2021/10/23 07:41:18;;;;;;;12.57;9.60;;;11.50;99.90;;;;;;4974729;28;20820;-85
2021/10/23 07:47:52;;;;;;;12.33;9.60;;;11.70;99.90;;;;;;4943359;28;20507;-84
2021/10/23 07:54:33;;;;;;;12.50;9.00;;;12.40;99.90;;;;;;4877690;29;20510;-84
2021/10/23 08:04:53;;;;;;;13.63;8.73;;;12.20;99.90;;;;;;4910370;29;20664;-85
2021/10/23 08:07:34;;;;;;;14.33;8.60;;;12.30;99.90;;;;;;4892087;29;20549;-85
2021/10/23 08:11:04;;;;;;;;;;;;;;;;;;;;;
2021/10/23 08:48:53;;;;;;;11.13;7.17;;;13.60;99.90;;;;;;4963803;28;20483;-85
2021/10/23 08:51:20;;;;;;;8.43;7.53;;;13.40;99.90;;;;;;4975205;28;20497;-87
2021/10/23 08:53:48;;;;;;;12.00;7.63;;;13.60;99.90;;;;;;4976541;28;20569;-86
2021/10/23 08:57:05;;;;;;;8.10;6.97;;;13.10;99.90;;;;;;4976308;28;20514;-84
2021/10/23 08:59:45;;;;;;;8.23;7.07;;;13.00;99.90;;;;;;4987886;28;20591;-85
2021/10/23 09:02:23;;;;;;;10.70;7.67;;;13.50;99.90;;;;;;4976297;28;20460;-85
2021/10/23 09:05:13;;;;;;;14.47;7.73;;;13.40;99.90;;;;;;4974169;28;20478;-83
2021/10/23 09:08:27;;;;;;;;;;;;;;;;;;;;;
2021/10/23 09:11:06;;;;;;;7.20;6.10;;;13.70;99.90;;;;;;4975441;28;20479;-86
2021/10/23 09:13:37;;;;;;;9.80;7.20;;;13.40;99.90;;;;;;4973852;28;20459;-85
2021/10/23 09:16:18;;;;;;;8.30;6.90;;;13.30;99.90;;;;;;4976730;28;20538;-85
2021/10/23 09:18:54;;;;;;;9.70;7.00;;;13.10;99.90;;;;;;4977870;28;20469;-86
2021/10/23 09:27:51;;;;;;;9.77;7.30;;;13.10;99.90;;;;;;4930695;29;20489;-85
2021/10/23 09:30:31;;;;;;;10.10;6.87;;;13.00;99.90;;;;;;4921127;29;20457;-85
2021/10/23 09:33:05;;;;;;;11.00;7.23;;;13.10;99.90;;;;;;4932276;29;20486;-87
2021/10/23 09:35:35;;;;;;;10.43;6.83;;;13.40;99.90;;;;;;4919747;29;20486;-85
2021/10/23 09:42:13;;;;;;;11.87;7.23;;;13.20;99.90;;;;;;4930777;29;20470;-87
2021/10/23 09:49:10;;;;;;;10.20;7.70;;;13.50;99.90;;;;;;4884239;29;20492;-86
2021/10/23 09:52:08;;;;;;;14.77;8.90;;;14.00;99.90;;;;;;4893088;29;20527;-89
2021/10/23 09:54:37;;;;;;;12.63;9.30;;;13.90;99.90;;;;;;4934478;28;20489;-84
2021/10/23 09:57:09;;;;;;;11.83;7.80;;;13.70;99.90;;;;;;4922263;29;20491;-87
2021/10/23 10:00:03;;;;;;;12.60;8.30;;;13.60;99.90;;;;;;4922332;29;21719;-86
2021/10/23 10:07:05;;;;;;;10.83;7.70;;;13.30;99.90;;;;;;4987276;23;20508;-85
2021/10/23 10:10:13;;;;;;;13.40;7.70;;;14.00;99.90;;;;;;4908628;29;20582;-86
2021/10/23 10:16:57;;;;;;;8.83;6.40;;;13.60;99.90;;;;;;4999705;23;20535;-86
2021/10/23 10:27:23;;;;;;;8.87;5.00;;;13.30;99.90;;;;;;4950823;28;20453;-85
2021/10/23 10:30:59;;;;;;;;;;;;;;;;;;;;;
2021/10/23 10:39:55;;;;;;;13.63;5.07;;;13.30;99.90;;;;;;4988914;23;21762;-85
2021/10/23 10:43:02;;;;;;;8.17;3.83;;;13.10;99.90;;;;;;4976932;28;20462;-87
2021/10/23 10:49:52;;;;;;;;;;;;;;;;;;;;;
2021/10/23 10:52:39;;;;;;;7.43;4.50;;;13.30;99.90;;;;;;4802590;29;20449;-83
2021/10/23 10:55:16;;;;;;;6.67;4.70;;;13.20;99.90;;;;;;4955279;28;20473;-86
2021/10/23 10:58:48;;;;;;;;;;;;;;;;;;;;;
2021/10/23 11:02:08;;;;;;;8.70;6.50;;;13.30;99.90;;;;;;4954750;28;20848;-87
2021/10/23 11:09:29;;;;;;;8.00;6.40;;;14.00;99.90;;;;;;4954155;28;20488;-87
2021/10/23 11:12:03;;;;;;;13.77;6.47;;;14.10;99.90;;;;;;4928654;28;20462;-85
2021/10/23 11:14:59;;;;;;;8.80;6.23;;;14.00;99.90;;;;;;4969455;28;20575;-85
2021/10/23 11:21:24;;;;;;;9.63;6.33;;;14.10;99.90;;;;;;4953458;28;20470;-84
2021/10/23 11:46:06;;;;;;;8.70;6.13;;;14.40;99.10;;;;;;4995224;28;20752;-83
2021/10/23 11:49:01;;;;;;;9.53;7.43;;;14.10;99.70;;;;;;4990366;28;20446;-85
2021/10/23 11:51:52;;;;;;;13.87;6.53;;;14.00;99.90;;;;;;4986640;28;20469;-86
2021/10/23 11:54:19;;;;;;;7.70;6.90;;;14.10;99.90;;;;;;4987301;28;20470;-86
2021/10/23 11:56:51;;;;;;;7.67;6.93;;;14.10;99.90;;;;;;4990321;28;20463;-86
2021/10/23 11:59:24;;;;;;;7.30;6.60;;;14.10;99.90;;;;;;4989868;28;20462;-84
2021/10/23 12:02:52;;;;;;;7.53;6.80;;;14.20;99.90;;;;;;4989297;28;20478;-87
2021/10/23 12:06:36;;;;;;;;;;;;;;;;;;;;;
2021/10/23 12:10:15;;;;;;;9.80;7.90;;;13.80;99.90;;;;;;4950225;28;20450;-84
2021/10/23 12:17:21;;;;;;;7.63;6.20;;;13.80;99.90;;;;;;4948887;28;20421;-86
2021/10/23 12:20:26;;;;;;;8.23;6.63;;;13.90;99.90;;;;;;4859212;29;20500;-85
2021/10/23 12:35:12;;;;;;;8.70;5.97;;;14.20;99.90;;;;;;4937586;29;20466;-87
2021/10/23 12:38:38;;;;;;;9.27;6.27;;;14.00;99.90;;;;;;4904316;29;20653;-86
2021/10/23 12:41:28;;;;;;;8.87;5.90;;;14.50;99.70;;;;;;4922934;29;20473;-86
2021/10/23 12:43:58;;;;;;;9.00;5.87;;;14.40;98.80;;;;;;4915218;29;20488;-88
2021/10/23 12:47:24;;;;;;;10.00;6.63;;;14.40;98.80;;;;;;4900131;29;20462;-85
2021/10/23 12:50:10;;;;;;;8.17;5.40;;;14.30;98.60;;;;;;4911763;29;20458;-86
2021/10/23 12:53:52;;;;;;;;;;;;;;;;;;;;;
2021/10/23 12:56:59;;;;;;;6.37;5.60;;;13.80;99.30;;;;;;4835085;29;20559;-85
2021/10/23 13:23:12;;;;;;;7.40;4.93;;;14.20;99.00;;;;;;4973943;28;20475;-85
2021/10/23 13:25:39;;;;;;;9.10;5.40;;;14.30;98.50;;;;;;4974880;28;20471;-85
2021/10/23 13:28:07;;;;;;;8.30;5.47;;;14.30;98.60;;;;;;4967224;28;20472;-84
2021/10/23 13:30:34;;;;;;;9.53;5.80;;;14.00;99.00;;;;;;4971209;28;20475;-85
2021/10/23 13:33:05;;;;;;;10.43;5.80;;;14.10;99.30;;;;;;4972397;28;20836;-86
2021/10/23 13:36:08;;;;;;;8.13;4.87;;;14.20;98.70;;;;;;4925958;29;20537;-86
2021/10/23 13:38:54;;;;;;;7.00;4.80;;;14.10;98.80;;;;;;4972010;28;20464;-86
2021/10/23 13:41:21;;;;;;;9.80;5.20;;;14.00;98.90;;;;;;4971776;28;20491;-84
2021/10/23 13:43:55;;;;;;;6.33;5.60;;;14.30;98.40;;;;;;4975357;28;20547;-86
2021/10/23 13:46:22;;;;;;;8.53;5.37;;;14.20;98.60;;;;;;4983088;28;20463;-85
2021/10/23 13:48:48;;;;;;;5.60;4.50;;;14.20;98.30;;;;;;4975224;28;20520;-84
2021/10/23 13:51:16;;;;;;;7.10;4.93;;;14.10;98.50;;;;;;4975367;28;20702;-85
2021/10/23 13:53:45;;;;;;;5.43;4.10;;;14.10;98.40;;;;;;4975948;28;20475;-87
2021/10/23 13:57:04;;;;;;;8.37;4.50;;;14.00;98.60;;;;;;4974880;28;20488;-86
2021/10/23 14:03:23;;;;;;;8.43;4.30;;;14.00;99.10;;;;;;4950030;28;20542;-86
2021/10/23 14:05:56;;;;;;;7.70;4.37;;;14.30;97.90;;;;;;4976003;28;20971;-85
2021/10/23 14:08:49;;;;;;;5.63;3.50;;;14.40;97.40;;;;;;4976054;28;20452;-86
2021/10/23 14:11:24;;;;;;;8.73;4.50;;;14.40;97.30;;;;;;4980942;28;20452;-87
2021/10/23 14:13:59;;;;;;;6.80;3.80;;;14.20;97.10;;;;;;4978323;28;20548;-85
2021/10/23 14:17:02;;;;;;;6.33;3.43;;;14.30;97.00;;;;;;4976069;28;20511;-86
2021/10/23 14:19:39;;;;;;;4.83;3.90;;;14.40;97.00;;;;;;4979635;28;20487;-86
2021/10/23 14:22:18;;;;;;;8.70;3.67;;;14.30;96.90;;;;;;4978112;28;20479;-85
2021/10/23 14:28:59;;;;;;;5.67;4.17;;;14.10;96.70;;;;;;4897985;29;20444;-85
2021/10/23 14:31:40;;;;;;;4.73;3.60;;;14.10;96.90;;;;;;4890987;29;20473;-86
2021/10/23 14:34:22;;;;;;;9.60;4.07;;;14.30;96.50;;;;;;4909304;29;20431;-86
2021/10/23 14:37:43;;;;;;;7.73;3.60;;;14.30;96.40;;;;;;4923160;29;20471;-87
2021/10/23 14:41:24;;;;;;;;;;;;;;;;;;;;;
2021/10/23 14:53:31;;;;;;;;;;;;;;;;;;;;;
2021/10/23 14:56:20;;;;;;;8.13;3.50;;;14.40;96.20;;;;;;5509176;23;20496;-87
2021/10/23 14:59:01;;;;;;;9.60;3.10;;;14.30;96.20;;;;;;4858451;29;20492;-85
2021/10/23 15:01:31;;;;;;;5.13;3.10;;;14.20;95.60;;;;;;4951859;28;20481;-86
2021/10/23 15:04:19;;;;;;;3.90;3.30;;;14.00;96.20;;;;;;4934714;28;22202;-85
2021/10/23 15:06:47;;;;;;;9.47;3.40;;;14.10;96.30;;;;;;4948177;28;20441;-86
2021/10/23 15:09:20;;;;;;;8.00;4.87;;;14.10;96.10;;;;;;4949728;28;20456;-85
2021/10/23 15:12:01;;;;;;;8.33;3.20;;;14.00;95.90;;;;;;4934412;28;20486;-84
2021/10/23 15:14:30;;;;;;;4.50;2.57;;;14.00;95.20;;;;;;4932300;28;20547;-82
2021/10/23 15:20:50;;;;;;;4.03;2.60;;;13.90;96.10;;;;;;4953803;28;20473;-84
2021/10/23 15:23:22;;;;;;;5.73;3.33;;;13.90;96.10;;;;;;4931912;28;20520;-85
2021/10/23 15:25:51;;;;;;;2.83;2.33;;;13.90;96.50;;;;;;4944784;28;20477;-86
2021/10/23 15:31:58;;;;;;;3.17;2.20;;;14.00;95.80;;;;;;4949311;28;20444;-84
2021/10/23 15:34:39;;;;;;;6.53;2.93;;;14.00;96.00;;;;;;4936673;28;20496;-84
2021/10/23 15:37:13;;;;;;;4.77;3.07;;;13.90;96.10;;;;;;4953326;28;20504;-84
2021/10/23 15:39:49;;;;;;;6.33;2.90;;;14.00;96.20;;;;;;4936616;28;20449;-86
2021/10/23 15:50:03;;;;;;;5.13;3.13;;;13.80;95.80;;;;;;4949668;28;20499;-87
2021/10/23 15:52:33;;;;;;;3.97;3.10;;;13.70;96.30;;;;;;4938068;29;20470;-87
2021/10/23 15:55:04;;;;;;;6.20;3.50;;;13.70;96.30;;;;;;4972985;28;20550;-84
2021/10/23 16:13:13;;;;;;;6.53;4.57;;;13.60;97.40;;;;;;4841614;29;20442;-85
2021/10/23 16:15:45;;;;;;;8.33;4.43;;;13.60;97.20;;;;;;4792402;29;20579;-85
2021/10/23 16:18:17;;;;;;;4.27;3.80;;;13.90;96.80;;;;;;4823525;29;20458;-86
2021/10/23 16:24:52;;;;;;;5.30;3.50;;;13.80;96.80;;;;;;4815921;29;20472;-86
2021/10/23 16:27:22;;;;;;;7.20;4.70;;;13.80;96.60;;;;;;4836645;29;20494;-84
2021/10/23 16:34:19;;;;;;;8.70;3.63;;;13.80;95.30;;;;;;4862929;29;20457;-86
2021/10/23 16:41:25;;;;;;;5.40;3.17;;;13.60;95.50;;;;;;4814282;29;20480;-86
2021/10/23 16:43:54;;;;;;;4.90;2.93;;;13.50;95.30;;;;;;4803458;29;21157;-85
2021/10/23 16:46:28;;;;;;;3.30;2.43;;;13.60;94.70;;;;;;4893394;29;20471;-87
2021/10/23 16:58:54;;;;;;;5.67;3.50;;;13.50;94.60;;;;;;5001394;28;20490;-85
2021/10/23 17:04:52;;;;;;;8.00;3.57;;;13.50;94.40;;;;;;5194920;23;20531;-89
2021/10/23 17:14:49;;;;;;;4.30;3.90;;;13.10;95.20;;;;;;5002250;28;20466;-85
2021/10/23 17:21:47;;;;;;;4.70;3.20;;;13.50;94.40;;;;;;4970556;28;20473;-87
2021/10/23 17:24:17;;;;;;;4.13;3.00;;;13.50;94.30;;;;;;4996065;28;20459;-87
2021/10/23 17:36:53;;;;;;;5.33;4.10;;;13.20;94.40;;;;;;4995407;28;20494;-83
2021/10/23 17:39:30;;;;;;;5.37;3.50;;;13.10;94.60;;;;;;4996341;28;20510;-86
2021/10/23 17:45:54;;;;;;;8.40;4.10;;;12.80;94.80;;;;;;4994908;28;20455;-83
2021/10/23 17:52:23;;;;;;;5.67;4.13;;;12.80;94.90;;;;;;4959201;28;20479;-85
2021/10/23 18:00:27;;;;;;;6.10;3.43;;;12.50;95.40;;;;;;5073801;23;20504;-86
2021/10/23 18:03:00;;;;;;;5.37;4.33;;;12.70;94.90;;;;;;4976055;28;20499;-86
2021/10/23 18:12:39;;;;;;;3.40;2.57;;;12.60;94.50;;;;;;4839673;29;20900;-84
2021/10/23 18:15:12;;;;;;;4.73;3.00;;;12.60;94.20;;;;;;4845394;29;20502;-85
2021/10/23 18:39:46;;;;;;;3.43;3.23;;;12.10;95.60;;;;;;5027081;23;20483;-86
2021/10/23 18:42:18;;;;;;;4.70;3.80;;;12.20;95.40;;;;;;5004199;28;20519;-85
2021/10/23 18:49:04;;;;;;;5.70;3.87;;;12.30;95.60;;;;;;4939616;28;20485;-84
2021/10/23 18:51:35;;;;;;;6.10;3.60;;;12.10;95.90;;;;;;4989901;28;20471;-83
2021/10/23 18:54:05;;;;;;;8.20;3.70;;;11.90;96.10;;;;;;4995566;28;20458;-83
2021/10/23 19:00:25;;;;;;;5.23;3.70;;;12.10;95.70;;;;;;4996728;28;20466;-84
2021/10/23 19:03:05;;;;;;;10.30;4.10;;;11.70;96.30;;;;;;4994490;28;20487;-82
2021/10/23 19:22:00;;;;;;;7.17;5.50;;;11.80;96.90;;;;;;5006190;28;20598;-84
2021/10/23 19:24:38;;;;;;;7.73;5.00;;;11.70;97.20;;;;;;5001807;28;20898;-84
2021/10/23 19:27:44;;;;;;;8.87;4.83;;;11.60;97.70;;;;;;4985063;28;20498;-85
2021/10/23 19:31:26;;;;;;;;;;;;;;;;;;;;;
2021/10/23 19:34:03;;;;;;;6.90;3.97;;;11.70;97.20;;;;;;4985945;28;20447;-85
2021/10/23 19:37:33;;;;;;;6.03;4.20;;;11.50;97.20;;;;;;4987148;28;20449;-86
2021/10/23 19:40:13;;;;;;;8.43;4.37;;;11.50;97.70;;;;;;4993930;28;20451;-85
2021/10/23 19:47:20;;;;;;;5.60;4.60;;;11.40;97.90;;;;;;5020932;28;20442;-88
2021/10/23 19:53:33;;;;;;;7.47;4.30;;;11.30;97.90;;;;;;5023103;28;20650;-87
2021/10/23 19:56:11;;;;;;;8.93;4.90;;;11.20;98.60;;;;;;4996856;28;20535;-88
2021/10/23 20:02:53;;;;;;;7.40;5.20;;;11.20;98.30;;;;;;4996074;28;20458;-88
2021/10/23 20:05:38;;;;;;;8.67;5.37;;;11.10;98.50;;;;;;4993124;28;20507;-87
2021/10/23 20:10:47;;;;;;;5.80;5.20;;;11.00;99.30;;;;;;5974304;23;20466;-88
2021/10/23 20:13:21;;;;;;;7.10;6.23;;;11.10;99.00;;;;;;5002374;28;20482;-88
2021/10/23 20:19:58;;;;;;;8.80;4.90;;;10.90;99.50;;;;;;4986901;28;20521;-87
2021/10/23 20:23:13;;;;;;;12.20;6.33;;;10.90;99.90;;;;;;4991930;28;20485;-88
2021/10/23 20:41:41;;;;;;;8.10;6.43;;;10.90;99.90;;;;;;4974802;28;20491;-87
2021/10/23 20:46:55;;;;;;;9.40;6.00;;;10.80;99.90;;;;;;5016206;23;20473;-86
2021/10/23 20:49:43;;;;;;;11.97;8.20;;;10.80;99.90;;;;;;4989700;28;20447;-86
2021/10/23 21:16:35;;;;;;;11.70;10.03;;;10.30;99.90;;;;;;5483224;23;20654;-87
2021/10/23 21:19:02;;;;;;;9.10;7.60;;;10.30;99.90;;;;;;4987160;28;20473;-89
2021/10/23 21:21:34;;;;;;;15.83;7.50;;;10.30;99.90;;;;;;4987383;28;20447;-88
2021/10/23 21:27:48;;;;;;;10.77;7.00;;;10.20;99.90;;;;;;4986188;28;20454;-87
2021/10/23 21:30:24;;;;;;;12.10;8.50;;;10.10;99.90;;;;;;4987046;28;20772;-87
2021/10/23 21:32:57;;;;;;;8.37;6.27;;;10.10;99.90;;;;;;4986168;28;20523;-90
2021/10/23 21:39:19;;;;;;;9.33;7.23;;;10.10;99.90;;;;;;4992554;28;20434;-88
2021/10/23 21:42:17;;;;;;;9.97;6.40;;;10.20;99.90;;;;;;4993281;28;22608;-87
2021/10/23 21:51:00;;;;;;;7.00;6.00;;;10.10;99.90;;;;;;4990902;28;20482;-87
2021/10/23 21:53:35;;;;;;;7.67;6.60;;;9.90;99.90;;;;;;4983000;28;20470;-89
2021/10/23 21:56:09;;;;;;;8.23;6.10;;;9.90;99.90;;;;;;4992592;28;20511;-87